sensor_id;sensor_type;location;lat;lon;timestamp;P1;durP1;ratioP1;P2;durP2;ratioP2
64854;SDS011;51321;50.428;8.378;2023-12-20T00:00:37;1.02;;;0.40;;
64854;SDS011;51321;50.428;8.378;2023-12-20T00:03:18;0.50;;;0.40;;
64854;SDS011;51321;50.428;8.378;2023-12-20T00:05:59;0.70;;;0.30;;
64854;SDS011;51321;50.428;8.378;2023-12-20T00:08:40;0.73;;;0.40;;
64854;SDS011;51321;50.428;8.378;2023-12-20T00:11:21;0.40;;;0.28;;
64854;SDS011;51321;50.428;8.378;2023-12-20T00:14:01;1.10;;;0.30;;
64854;SDS011;51321;50.428;8.378;2023-12-20T00:16:42;1.65;;;0.38;;
64854;SDS011;51321;50.428;8.378;2023-12-20T00:19:24;0.35;;;0.30;;
64854;SDS011;51321;50.428;8.378;2023-12-20T00:22:05;1.77;;;0.40;;
64854;SDS011;51321;50.428;8.378;2023-12-20T00:24:46;2.30;;;0.40;;
64854;SDS011;51321;50.428;8.378;2023-12-20T00:27:26;1.75;;;0.60;;
64854;SDS011;51321;50.428;8.378;2023-12-20T00:30:07;1.05;;;0.60;;
64854;SDS011;51321;50.428;8.378;2023-12-20T00:32:49;1.50;;;0.50;;
64854;SDS011;51321;50.428;8.378;2023-12-20T00:35:32;4.25;;;2.20;;
64854;SDS011;51321;50.428;8.378;2023-12-20T00:38:12;1.73;;;1.30;;
64854;SDS011;51321;50.428;8.378;2023-12-20T00:40:53;0.90;;;0.80;;
64854;SDS011;51321;50.428;8.378;2023-12-20T00:43:34;0.50;;;0.30;;
64854;SDS011;51321;50.428;8.378;2023-12-20T00:46:15;1.00;;;0.43;;
64854;SDS011;51321;50.428;8.378;2023-12-20T00:48:56;2.45;;;0.70;;
64854;SDS011;51321;50.428;8.378;2023-12-20T00:51:40;2.08;;;0.60;;
64854;SDS011;51321;50.428;8.378;2023-12-20T00:54:20;1.02;;;0.55;;
64854;SDS011;51321;50.428;8.378;2023-12-20T00:57:01;1.35;;;0.55;;
64854;SDS011;51321;50.428;8.378;2023-12-20T00:59:42;0.40;;;0.30;;
64854;SDS011;51321;50.428;8.378;2023-12-20T01:02:23;0.70;;;0.40;;
64854;SDS011;51321;50.428;8.378;2023-12-20T01:05:04;0.88;;;0.50;;
64854;SDS011;51321;50.428;8.378;2023-12-20T01:07:47;2.03;;;0.40;;
64854;SDS011;51321;50.428;8.378;2023-12-20T01:10:28;0.47;;;0.45;;
64854;SDS011;51321;50.428;8.378;2023-12-20T01:13:09;0.52;;;0.30;;
64854;SDS011;51321;50.428;8.378;2023-12-20T01:15:50;0.60;;;0.35;;
64854;SDS011;51321;50.428;8.378;2023-12-20T01:18:34;0.82;;;0.60;;
64854;SDS011;51321;50.428;8.378;2023-12-20T01:21:14;0.60;;;0.40;;
64854;SDS011;51321;50.428;8.378;2023-12-20T01:23:57;1.13;;;0.60;;
64854;SDS011;51321;50.428;8.378;2023-12-20T01:26:37;0.82;;;0.50;;
64854;SDS011;51321;50.428;8.378;2023-12-20T01:29:18;0.80;;;0.60;;
64854;SDS011;51321;50.428;8.378;2023-12-20T01:31:59;1.38;;;0.60;;
64854;SDS011;51321;50.428;8.378;2023-12-20T01:34:39;0.93;;;0.63;;
64854;SDS011;51321;50.428;8.378;2023-12-20T01:37:20;1.25;;;0.63;;
64854;SDS011;51321;50.428;8.378;2023-12-20T01:40:04;0.70;;;0.55;;
64854;SDS011;51321;50.428;8.378;2023-12-20T01:42:48;1.27;;;0.60;;
64854;SDS011;51321;50.428;8.378;2023-12-20T01:45:38;2.30;;;1.00;;
64854;SDS011;51321;50.428;8.378;2023-12-20T01:48:19;0.73;;;0.55;;
64854;SDS011;51321;50.428;8.378;2023-12-20T01:51:00;2.13;;;0.68;;
64854;SDS011;51321;50.428;8.378;2023-12-20T01:53:42;0.68;;;0.50;;
64854;SDS011;51321;50.428;8.378;2023-12-20T01:56:25;0.50;;;0.40;;
64854;SDS011;51321;50.428;8.378;2023-12-20T01:59:08;0.70;;;0.60;;
64854;SDS011;51321;50.428;8.378;2023-12-20T02:01:49;1.40;;;0.50;;
64854;SDS011;51321;50.428;8.378;2023-12-20T02:04:30;0.73;;;0.50;;
64854;SDS011;51321;50.428;8.378;2023-12-20T02:07:12;0.80;;;0.50;;
64854;SDS011;51321;50.428;8.378;2023-12-20T02:09:39;0.95;;;0.55;;
64854;SDS011;51321;50.428;8.378;2023-12-20T02:12:21;0.77;;;0.50;;
64854;SDS011;51321;50.428;8.378;2023-12-20T02:15:02;1.17;;;0.70;;
64854;SDS011;51321;50.428;8.378;2023-12-20T02:17:44;0.87;;;0.60;;
64854;SDS011;51321;50.428;8.378;2023-12-20T02:20:26;1.63;;;1.15;;
64854;SDS011;51321;50.428;8.378;2023-12-20T02:23:07;2.60;;;1.70;;
64854;SDS011;51321;50.428;8.378;2023-12-20T02:25:48;1.17;;;0.90;;
64854;SDS011;51321;50.428;8.378;2023-12-20T02:28:28;1.33;;;0.80;;
64854;SDS011;51321;50.428;8.378;2023-12-20T02:31:09;1.25;;;0.80;;
64854;SDS011;51321;50.428;8.378;2023-12-20T02:33:49;0.77;;;0.77;;
64854;SDS011;51321;50.428;8.378;2023-12-20T02:36:30;1.00;;;0.73;;
64854;SDS011;51321;50.428;8.378;2023-12-20T02:39:12;1.33;;;0.73;;
64854;SDS011;51321;50.428;8.378;2023-12-20T02:41:52;0.88;;;0.70;;
64854;SDS011;51321;50.428;8.378;2023-12-20T02:44:33;0.50;;;0.40;;
64854;SDS011;51321;50.428;8.378;2023-12-20T02:47:15;0.70;;;0.55;;
64854;SDS011;51321;50.428;8.378;2023-12-20T02:49:57;2.65;;;1.38;;
64854;SDS011;51321;50.428;8.378;2023-12-20T02:52:42;0.73;;;0.60;;
64854;SDS011;51321;50.428;8.378;2023-12-20T02:55:26;0.77;;;0.57;;
64854;SDS011;51321;50.428;8.378;2023-12-20T02:58:06;0.90;;;0.70;;
64854;SDS011;51321;50.428;8.378;2023-12-20T03:00:47;1.33;;;0.68;;
64854;SDS011;51321;50.428;8.378;2023-12-20T03:03:27;0.77;;;0.60;;
64854;SDS011;51321;50.428;8.378;2023-12-20T03:06:08;0.75;;;0.60;;
64854;SDS011;51321;50.428;8.378;2023-12-20T03:08:48;0.77;;;0.52;;
64854;SDS011;51321;50.428;8.378;2023-12-20T03:11:30;0.40;;;0.35;;
64854;SDS011;51321;50.428;8.378;2023-12-20T03:14:10;0.63;;;0.40;;
64854;SDS011;51321;50.428;8.378;2023-12-20T03:16:51;0.93;;;0.50;;
64854;SDS011;51321;50.428;8.378;2023-12-20T03:19:32;1.00;;;0.55;;
64854;SDS011;51321;50.428;8.378;2023-12-20T03:22:12;0.75;;;0.50;;
64854;SDS011;51321;50.428;8.378;2023-12-20T03:24:53;0.60;;;0.60;;
64854;SDS011;51321;50.428;8.378;2023-12-20T03:27:35;0.70;;;0.50;;
64854;SDS011;51321;50.428;8.378;2023-12-20T03:30:17;1.67;;;0.70;;
64854;SDS011;51321;50.428;8.378;2023-12-20T03:32:58;1.80;;;0.73;;
64854;SDS011;51321;50.428;8.378;2023-12-20T03:35:38;1.13;;;0.90;;
64854;SDS011;51321;50.428;8.378;2023-12-20T03:38:20;2.17;;;1.00;;
64854;SDS011;51321;50.428;8.378;2023-12-20T03:41:02;1.10;;;0.80;;
64854;SDS011;51321;50.428;8.378;2023-12-20T03:43:45;2.17;;;0.77;;
64854;SDS011;51321;50.428;8.378;2023-12-20T03:46:26;3.72;;;1.05;;
64854;SDS011;51321;50.428;8.378;2023-12-20T03:49:06;1.40;;;1.05;;
64854;SDS011;51321;50.428;8.378;2023-12-20T03:51:47;1.70;;;1.10;;
64854;SDS011;51321;50.428;8.378;2023-12-20T03:54:27;2.83;;;1.13;;
64854;SDS011;51321;50.428;8.378;2023-12-20T03:57:07;2.00;;;1.10;;
64854;SDS011;51321;50.428;8.378;2023-12-20T03:59:50;1.63;;;1.20;;
64854;SDS011;51321;50.428;8.378;2023-12-20T04:02:30;1.50;;;1.40;;
64854;SDS011;51321;50.428;8.378;2023-12-20T04:05:10;3.45;;;1.50;;
64854;SDS011;51321;50.428;8.378;2023-12-20T04:07:51;2.47;;;1.55;;
64854;SDS011;51321;50.428;8.378;2023-12-20T04:10:31;1.83;;;1.30;;
64854;SDS011;51321;50.428;8.378;2023-12-20T04:13:12;2.88;;;1.85;;
64854;SDS011;51321;50.428;8.378;2023-12-20T04:15:54;2.65;;;1.77;;
64854;SDS011;51321;50.428;8.378;2023-12-20T04:18:34;5.40;;;1.90;;
64854;SDS011;51321;50.428;8.378;2023-12-20T04:21:15;2.65;;;2.20;;
64854;SDS011;51321;50.428;8.378;2023-12-20T04:23:55;2.30;;;2.05;;
64854;SDS011;51321;50.428;8.378;2023-12-20T04:26:36;3.05;;;2.75;;
64854;SDS011;51321;50.428;8.378;2023-12-20T04:29:16;5.40;;;2.78;;
64854;SDS011;51321;50.428;8.378;2023-12-20T04:31:58;5.55;;;2.35;;
64854;SDS011;51321;50.428;8.378;2023-12-20T04:34:39;4.28;;;2.70;;
64854;SDS011;51321;50.428;8.378;2023-12-20T04:37:19;7.50;;;2.90;;
64854;SDS011;51321;50.428;8.378;2023-12-20T04:39:59;5.53;;;3.08;;
64854;SDS011;51321;50.428;8.378;2023-12-20T04:42:40;6.10;;;2.67;;
64854;SDS011;51321;50.428;8.378;2023-12-20T04:45:20;5.13;;;2.75;;
64854;SDS011;51321;50.428;8.378;2023-12-20T04:48:04;5.72;;;2.08;;
64854;SDS011;51321;50.428;8.378;2023-12-20T04:50:45;4.63;;;2.28;;
64854;SDS011;51321;50.428;8.378;2023-12-20T04:53:25;5.90;;;2.15;;
64854;SDS011;51321;50.428;8.378;2023-12-20T04:56:06;9.52;;;2.70;;
64854;SDS011;51321;50.428;8.378;2023-12-20T04:58:47;6.00;;;2.53;;
64854;SDS011;51321;50.428;8.378;2023-12-20T05:01:27;5.78;;;2.55;;
64854;SDS011;51321;50.428;8.378;2023-12-20T05:04:09;7.13;;;2.63;;
64854;SDS011;51321;50.428;8.378;2023-12-20T05:06:49;8.27;;;2.90;;
64854;SDS011;51321;50.428;8.378;2023-12-20T05:09:30;7.72;;;2.50;;
64854;SDS011;51321;50.428;8.378;2023-12-20T05:12:11;7.72;;;2.20;;
64854;SDS011;51321;50.428;8.378;2023-12-20T05:14:51;10.35;;;2.95;;
64854;SDS011;51321;50.428;8.378;2023-12-20T05:17:32;5.32;;;1.58;;
64854;SDS011;51321;50.428;8.378;2023-12-20T05:20:14;9.25;;;1.73;;
64854;SDS011;51321;50.428;8.378;2023-12-20T05:22:54;4.57;;;1.98;;
64854;SDS011;51321;50.428;8.378;2023-12-20T05:25:35;8.20;;;1.65;;
64854;SDS011;51321;50.428;8.378;2023-12-20T05:28:15;7.30;;;1.88;;
64854;SDS011;51321;50.428;8.378;2023-12-20T05:30:55;7.72;;;1.55;;
64854;SDS011;51321;50.428;8.378;2023-12-20T05:33:37;8.65;;;1.67;;
64854;SDS011;51321;50.428;8.378;2023-12-20T05:36:19;12.00;;;2.83;;
64854;SDS011;51321;50.428;8.378;2023-12-20T05:38:59;5.03;;;1.50;;
64854;SDS011;51321;50.428;8.378;2023-12-20T05:41:40;6.93;;;1.73;;
64854;SDS011;51321;50.428;8.378;2023-12-20T05:44:21;5.00;;;1.40;;
64854;SDS011;51321;50.428;8.378;2023-12-20T05:47:01;10.35;;;1.27;;
64854;SDS011;51321;50.428;8.378;2023-12-20T05:49:42;4.70;;;1.48;;
64854;SDS011;51321;50.428;8.378;2023-12-20T05:52:25;6.68;;;1.35;;
64854;SDS011;51321;50.428;8.378;2023-12-20T05:55:06;8.55;;;1.38;;
64854;SDS011;51321;50.428;8.378;2023-12-20T05:57:46;7.75;;;2.05;;
64854;SDS011;51321;50.428;8.378;2023-12-20T06:00:27;9.93;;;1.38;;
64854;SDS011;51321;50.428;8.378;2023-12-20T06:03:07;7.70;;;1.13;;
64854;SDS011;51321;50.428;8.378;2023-12-20T06:05:48;6.05;;;1.30;;
64854;SDS011;51321;50.428;8.378;2023-12-20T06:08:30;7.95;;;1.20;;
64854;SDS011;51321;50.428;8.378;2023-12-20T06:11:10;9.15;;;1.50;;
64854;SDS011;51321;50.428;8.378;2023-12-20T06:13:52;4.57;;;1.20;;
64854;SDS011;51321;50.428;8.378;2023-12-20T06:16:32;10.18;;;2.67;;
64854;SDS011;51321;50.428;8.378;2023-12-20T06:19:13;9.15;;;1.40;;
64854;SDS011;51321;50.428;8.378;2023-12-20T06:21:53;11.50;;;1.58;;
64854;SDS011;51321;50.428;8.378;2023-12-20T06:24:35;8.38;;;1.48;;
64854;SDS011;51321;50.428;8.378;2023-12-20T06:27:16;8.43;;;1.63;;
64854;SDS011;51321;50.428;8.378;2023-12-20T06:29:56;7.18;;;1.30;;
64854;SDS011;51321;50.428;8.378;2023-12-20T06:32:37;7.53;;;1.25;;
64854;SDS011;51321;50.428;8.378;2023-12-20T06:35:18;10.02;;;1.20;;
64854;SDS011;51321;50.428;8.378;2023-12-20T06:37:58;7.63;;;1.52;;
64854;SDS011;51321;50.428;8.378;2023-12-20T06:40:41;7.13;;;1.30;;
64854;SDS011;51321;50.428;8.378;2023-12-20T06:43:22;10.75;;;1.40;;
64854;SDS011;51321;50.428;8.378;2023-12-20T06:46:03;6.25;;;1.35;;
64854;SDS011;51321;50.428;8.378;2023-12-20T06:48:43;7.00;;;1.30;;
64854;SDS011;51321;50.428;8.378;2023-12-20T06:51:24;7.00;;;1.08;;
64854;SDS011;51321;50.428;8.378;2023-12-20T06:54:04;5.82;;;1.25;;
64854;SDS011;51321;50.428;8.378;2023-12-20T06:56:47;7.65;;;1.90;;
64854;SDS011;51321;50.428;8.378;2023-12-20T06:59:27;5.03;;;1.42;;
64854;SDS011;51321;50.428;8.378;2023-12-20T07:02:08;5.68;;;2.38;;
64854;SDS011;51321;50.428;8.378;2023-12-20T07:04:48;6.38;;;1.80;;
64854;SDS011;51321;50.428;8.378;2023-12-20T07:07:29;6.03;;;1.60;;
64854;SDS011;51321;50.428;8.378;2023-12-20T07:10:09;3.92;;;1.58;;
64854;SDS011;51321;50.428;8.378;2023-12-20T07:12:51;9.15;;;1.60;;
64854;SDS011;51321;50.428;8.378;2023-12-20T07:15:33;6.50;;;1.50;;
64854;SDS011;51321;50.428;8.378;2023-12-20T07:18:15;10.00;;;2.92;;
64854;SDS011;51321;50.428;8.378;2023-12-20T07:20:55;4.78;;;1.60;;
64854;SDS011;51321;50.428;8.378;2023-12-20T07:23:36;8.23;;;2.35;;
64854;SDS011;51321;50.428;8.378;2023-12-20T07:26:16;10.88;;;2.50;;
64854;SDS011;51321;50.428;8.378;2023-12-20T07:28:58;8.38;;;1.80;;
64854;SDS011;51321;50.428;8.378;2023-12-20T07:31:39;6.40;;;1.83;;
64854;SDS011;51321;50.428;8.378;2023-12-20T07:34:20;5.68;;;1.70;;
64854;SDS011;51321;50.428;8.378;2023-12-20T07:37:00;6.15;;;1.30;;
64854;SDS011;51321;50.428;8.378;2023-12-20T07:39:41;12.40;;;2.00;;
64854;SDS011;51321;50.428;8.378;2023-12-20T07:42:21;4.90;;;1.45;;
64854;SDS011;51321;50.428;8.378;2023-12-20T07:45:04;6.50;;;2.45;;
64854;SDS011;51321;50.428;8.378;2023-12-20T07:47:46;7.50;;;2.22;;
64854;SDS011;51321;50.428;8.378;2023-12-20T07:50:26;8.90;;;2.35;;
64854;SDS011;51321;50.428;8.378;2023-12-20T07:53:07;13.10;;;3.30;;
64854;SDS011;51321;50.428;8.378;2023-12-20T07:55:47;11.43;;;2.67;;
64854;SDS011;51321;50.428;8.378;2023-12-20T07:58:28;11.38;;;3.13;;
64854;SDS011;51321;50.428;8.378;2023-12-20T08:01:11;8.45;;;1.98;;
64854;SDS011;51321;50.428;8.378;2023-12-20T08:03:52;3.58;;;1.50;;
64854;SDS011;51321;50.428;8.378;2023-12-20T08:06:32;6.47;;;1.30;;
64854;SDS011;51321;50.428;8.378;2023-12-20T08:09:13;14.25;;;2.10;;
64854;SDS011;51321;50.428;8.378;2023-12-20T08:11:53;7.00;;;1.38;;
64854;SDS011;51321;50.428;8.378;2023-12-20T08:14:34;7.22;;;1.70;;
64854;SDS011;51321;50.428;8.378;2023-12-20T08:17:16;7.25;;;1.50;;
64854;SDS011;51321;50.428;8.378;2023-12-20T08:19:57;7.05;;;1.30;;
64854;SDS011;51321;50.428;8.378;2023-12-20T08:22:39;4.18;;;1.30;;
64854;SDS011;51321;50.428;8.378;2023-12-20T08:25:19;7.45;;;1.20;;
64854;SDS011;51321;50.428;8.378;2023-12-20T08:28:00;8.52;;;1.40;;
64854;SDS011;51321;50.428;8.378;2023-12-20T08:30:41;8.40;;;1.35;;
64854;SDS011;51321;50.428;8.378;2023-12-20T08:33:23;4.95;;;1.33;;
64854;SDS011;51321;50.428;8.378;2023-12-20T08:36:04;9.40;;;1.73;;
64854;SDS011;51321;50.428;8.378;2023-12-20T08:38:45;6.72;;;1.45;;
64854;SDS011;51321;50.428;8.378;2023-12-20T08:41:26;5.35;;;1.10;;
64854;SDS011;51321;50.428;8.378;2023-12-20T08:44:07;7.82;;;1.00;;
64854;SDS011;51321;50.428;8.378;2023-12-20T08:46:47;6.10;;;1.65;;
64854;SDS011;51321;50.428;8.378;2023-12-20T08:49:29;7.35;;;1.80;;
64854;SDS011;51321;50.428;8.378;2023-12-20T08:52:09;6.18;;;1.60;;
64854;SDS011;51321;50.428;8.378;2023-12-20T08:54:50;7.03;;;1.10;;
64854;SDS011;51321;50.428;8.378;2023-12-20T08:57:32;5.88;;;1.77;;
64854;SDS011;51321;50.428;8.378;2023-12-20T09:00:13;10.23;;;2.33;;
64854;SDS011;51321;50.428;8.378;2023-12-20T09:02:54;7.70;;;1.50;;
64854;SDS011;51321;50.428;8.378;2023-12-20T09:05:36;10.23;;;1.85;;
64854;SDS011;51321;50.428;8.378;2023-12-20T09:08:16;6.85;;;1.25;;
64854;SDS011;51321;50.428;8.378;2023-12-20T09:10:56;8.13;;;1.73;;
64854;SDS011;51321;50.428;8.378;2023-12-20T09:13:37;5.55;;;1.35;;
64854;SDS011;51321;50.428;8.378;2023-12-20T09:16:17;6.13;;;1.13;;
64854;SDS011;51321;50.428;8.378;2023-12-20T09:18:58;4.60;;;1.13;;
64854;SDS011;51321;50.428;8.378;2023-12-20T09:21:40;11.70;;;1.85;;
64854;SDS011;51321;50.428;8.378;2023-12-20T09:24:21;6.97;;;1.67;;
64854;SDS011;51321;50.428;8.378;2023-12-20T09:27:01;9.93;;;1.52;;
64854;SDS011;51321;50.428;8.378;2023-12-20T09:29:42;11.77;;;2.30;;
64854;SDS011;51321;50.428;8.378;2023-12-20T09:32:23;6.25;;;1.45;;
64854;SDS011;51321;50.428;8.378;2023-12-20T09:35:03;10.07;;;2.22;;
64854;SDS011;51321;50.428;8.378;2023-12-20T09:37:47;8.32;;;1.60;;
64854;SDS011;51321;50.428;8.378;2023-12-20T09:40:27;6.65;;;1.55;;
64854;SDS011;51321;50.428;8.378;2023-12-20T09:43:13;7.63;;;3.60;;
64854;SDS011;51321;50.428;8.378;2023-12-20T09:45:55;6.68;;;2.05;;
64854;SDS011;51321;50.428;8.378;2023-12-20T09:48:40;8.00;;;1.83;;
64854;SDS011;51321;50.428;8.378;2023-12-20T09:51:22;10.38;;;4.03;;
64854;SDS011;51321;50.428;8.378;2023-12-20T09:54:06;12.60;;;3.67;;
64854;SDS011;51321;50.428;8.378;2023-12-20T09:56:46;11.93;;;2.22;;
64854;SDS011;51321;50.428;8.378;2023-12-20T09:59:27;10.57;;;3.55;;
64854;SDS011;51321;50.428;8.378;2023-12-20T10:02:08;8.20;;;1.63;;
64854;SDS011;51321;50.428;8.378;2023-12-20T10:04:54;10.00;;;1.75;;
64854;SDS011;51321;50.428;8.378;2023-12-20T10:07:34;10.05;;;1.60;;
64854;SDS011;51321;50.428;8.378;2023-12-20T10:10:16;10.52;;;2.00;;
64854;SDS011;51321;50.428;8.378;2023-12-20T10:13:03;11.80;;;2.10;;
64854;SDS011;51321;50.428;8.378;2023-12-20T10:15:45;12.15;;;2.38;;
64854;SDS011;51321;50.428;8.378;2023-12-20T10:18:26;9.23;;;2.25;;
64854;SDS011;51321;50.428;8.378;2023-12-20T10:21:09;5.00;;;1.63;;
64854;SDS011;51321;50.428;8.378;2023-12-20T10:23:50;10.98;;;2.65;;
64854;SDS011;51321;50.428;8.378;2023-12-20T10:26:32;7.78;;;2.67;;
64854;SDS011;51321;50.428;8.378;2023-12-20T10:29:13;9.00;;;2.15;;
64854;SDS011;51321;50.428;8.378;2023-12-20T10:31:53;9.38;;;3.00;;
64854;SDS011;51321;50.428;8.378;2023-12-20T10:37:16;10.43;;;2.22;;
64854;SDS011;51321;50.428;8.378;2023-12-20T10:39:57;7.65;;;2.03;;
64854;SDS011;51321;50.428;8.378;2023-12-20T10:42:44;7.43;;;1.58;;
64854;SDS011;51321;50.428;8.378;2023-12-20T10:45:24;10.68;;;1.92;;
64854;SDS011;51321;50.428;8.378;2023-12-20T10:48:05;10.52;;;2.17;;
64854;SDS011;51321;50.428;8.378;2023-12-20T10:50:47;9.65;;;2.63;;
64854;SDS011;51321;50.428;8.378;2023-12-20T10:53:28;10.18;;;2.72;;
64854;SDS011;51321;50.428;8.378;2023-12-20T10:56:10;11.85;;;2.40;;
64854;SDS011;51321;50.428;8.378;2023-12-20T10:58:56;8.82;;;1.98;;
64854;SDS011;51321;50.428;8.378;2023-12-20T11:01:43;8.63;;;2.22;;
64854;SDS011;51321;50.428;8.378;2023-12-20T11:04:25;8.18;;;1.63;;
64854;SDS011;51321;50.428;8.378;2023-12-20T11:07:18;4.25;;;1.60;;
64854;SDS011;51321;50.428;8.378;2023-12-20T11:10:08;14.90;;;2.05;;
64854;SDS011;51321;50.428;8.378;2023-12-20T11:12:57;6.70;;;1.55;;
64854;SDS011;51321;50.428;8.378;2023-12-20T11:15:43;9.25;;;1.70;;
64854;SDS011;51321;50.428;8.378;2023-12-20T11:18:28;8.35;;;1.65;;
64854;SDS011;51321;50.428;8.378;2023-12-20T11:21:09;5.32;;;1.02;;
64854;SDS011;51321;50.428;8.378;2023-12-20T11:23:52;10.50;;;2.30;;
64854;SDS011;51321;50.428;8.378;2023-12-20T11:26:33;6.13;;;1.33;;
64854;SDS011;51321;50.428;8.378;2023-12-20T11:29:30;9.20;;;2.58;;
64854;SDS011;51321;50.428;8.378;2023-12-20T11:35:17;10.82;;;2.33;;
64854;SDS011;51321;50.428;8.378;2023-12-20T11:37:59;6.30;;;1.55;;
64854;SDS011;51321;50.428;8.378;2023-12-20T11:40:40;11.10;;;2.58;;
64854;SDS011;51321;50.428;8.378;2023-12-20T11:43:31;11.68;;;2.83;;
64854;SDS011;51321;50.428;8.378;2023-12-20T11:46:14;3.47;;;1.70;;
64854;SDS011;51321;50.428;8.378;2023-12-20T11:48:56;5.03;;;1.80;;
64854;SDS011;51321;50.428;8.378;2023-12-20T11:51:40;6.27;;;2.10;;
64854;SDS011;51321;50.428;8.378;2023-12-20T11:54:20;14.20;;;3.88;;
64854;SDS011;51321;50.428;8.378;2023-12-20T11:57:01;8.45;;;1.60;;
64854;SDS011;51321;50.428;8.378;2023-12-20T11:59:41;7.18;;;1.63;;
64854;SDS011;51321;50.428;8.378;2023-12-20T12:02:23;3.75;;;1.73;;
64854;SDS011;51321;50.428;8.378;2023-12-20T12:05:05;5.13;;;1.20;;
64854;SDS011;51321;50.428;8.378;2023-12-20T12:07:47;5.43;;;1.67;;
64854;SDS011;51321;50.428;8.378;2023-12-20T12:10:28;6.85;;;2.08;;
64854;SDS011;51321;50.428;8.378;2023-12-20T12:13:09;9.30;;;2.70;;
64854;SDS011;51321;50.428;8.378;2023-12-20T12:15:50;5.28;;;1.55;;
64854;SDS011;51321;50.428;8.378;2023-12-20T12:18:30;7.80;;;1.83;;
64854;SDS011;51321;50.428;8.378;2023-12-20T12:21:19;9.73;;;2.30;;
64854;SDS011;51321;50.428;8.378;2023-12-20T12:24:06;4.88;;;2.45;;
64854;SDS011;51321;50.428;8.378;2023-12-20T12:26:49;6.00;;;2.05;;
64854;SDS011;51321;50.428;8.378;2023-12-20T12:29:31;7.60;;;1.92;;
64854;SDS011;51321;50.428;8.378;2023-12-20T12:32:11;6.82;;;1.80;;
64854;SDS011;51321;50.428;8.378;2023-12-20T12:34:51;10.57;;;2.33;;
64854;SDS011;51321;50.428;8.378;2023-12-20T12:37:35;9.88;;;2.03;;
64854;SDS011;51321;50.428;8.378;2023-12-20T12:40:18;8.02;;;1.70;;
64854;SDS011;51321;50.428;8.378;2023-12-20T12:42:59;8.38;;;1.98;;
64854;SDS011;51321;50.428;8.378;2023-12-20T12:45:40;6.95;;;2.53;;
64854;SDS011;51321;50.428;8.378;2023-12-20T12:48:20;8.35;;;2.20;;
64854;SDS011;51321;50.428;8.378;2023-12-20T12:51:01;5.30;;;1.90;;
64854;SDS011;51321;50.428;8.378;2023-12-20T12:53:43;7.32;;;2.75;;
64854;SDS011;51321;50.428;8.378;2023-12-20T12:56:23;7.72;;;1.50;;
64854;SDS011;51321;50.428;8.378;2023-12-20T12:59:04;7.32;;;1.85;;
64854;SDS011;51321;50.428;8.378;2023-12-20T13:01:45;5.00;;;1.90;;
64854;SDS011;51321;50.428;8.378;2023-12-20T13:04:26;5.55;;;1.50;;
64854;SDS011;51321;50.428;8.378;2023-12-20T13:07:07;9.75;;;1.80;;
64854;SDS011;51321;50.428;8.378;2023-12-20T13:09:50;10.15;;;2.10;;
64854;SDS011;51321;50.428;8.378;2023-12-20T13:12:30;7.30;;;1.90;;
64854;SDS011;51321;50.428;8.378;2023-12-20T13:15:11;6.88;;;2.08;;
64854;SDS011;51321;50.428;8.378;2023-12-20T13:17:52;7.63;;;1.95;;
64854;SDS011;51321;50.428;8.378;2023-12-20T13:20:32;9.13;;;2.72;;
64854;SDS011;51321;50.428;8.378;2023-12-20T13:23:13;6.28;;;1.75;;
64854;SDS011;51321;50.428;8.378;2023-12-20T13:25:55;5.20;;;1.90;;
64854;SDS011;51321;50.428;8.378;2023-12-20T13:28:35;9.23;;;2.05;;
64854;SDS011;51321;50.428;8.378;2023-12-20T13:31:16;8.10;;;1.52;;
64854;SDS011;51321;50.428;8.378;2023-12-20T13:33:57;8.52;;;1.88;;
64854;SDS011;51321;50.428;8.378;2023-12-20T13:36:37;7.45;;;2.10;;
64854;SDS011;51321;50.428;8.378;2023-12-20T13:39:17;12.05;;;2.67;;
64854;SDS011;51321;50.428;8.378;2023-12-20T13:41:59;6.43;;;2.00;;
64854;SDS011;51321;50.428;8.378;2023-12-20T13:44:40;8.30;;;2.13;;
64854;SDS011;51321;50.428;8.378;2023-12-20T13:47:21;5.47;;;2.30;;
64854;SDS011;51321;50.428;8.378;2023-12-20T13:50:01;7.25;;;3.03;;
64854;SDS011;51321;50.428;8.378;2023-12-20T13:52:42;5.95;;;2.03;;
64854;SDS011;51321;50.428;8.378;2023-12-20T13:55:23;8.65;;;2.63;;
64854;SDS011;51321;50.428;8.378;2023-12-20T13:58:07;8.88;;;2.45;;
64854;SDS011;51321;50.428;8.378;2023-12-20T14:00:49;73.68;;;35.72;;
64854;SDS011;51321;50.428;8.378;2023-12-20T14:03:30;65.55;;;36.97;;
64854;SDS011;51321;50.428;8.378;2023-12-20T14:06:10;20.83;;;10.00;;
64854;SDS011;51321;50.428;8.378;2023-12-20T14:08:52;8.93;;;2.97;;
64854;SDS011;51321;50.428;8.378;2023-12-20T14:11:32;6.18;;;1.75;;
64854;SDS011;51321;50.428;8.378;2023-12-20T14:14:14;8.32;;;2.42;;
64854;SDS011;51321;50.428;8.378;2023-12-20T14:16:55;5.33;;;1.90;;
64854;SDS011;51321;50.428;8.378;2023-12-20T14:19:35;5.00;;;1.70;;
64854;SDS011;51321;50.428;8.378;2023-12-20T14:22:16;7.00;;;1.90;;
64854;SDS011;51321;50.428;8.378;2023-12-20T14:24:57;7.97;;;2.10;;
64854;SDS011;51321;50.428;8.378;2023-12-20T14:27:38;9.02;;;2.35;;
64854;SDS011;51321;50.428;8.378;2023-12-20T14:30:21;8.43;;;1.70;;
64854;SDS011;51321;50.428;8.378;2023-12-20T14:33:01;6.43;;;1.35;;
64854;SDS011;51321;50.428;8.378;2023-12-20T14:35:42;5.45;;;1.70;;
64854;SDS011;51321;50.428;8.378;2023-12-20T14:38:23;6.30;;;2.17;;
64854;SDS011;51321;50.428;8.378;2023-12-20T14:41:04;6.25;;;1.85;;
64854;SDS011;51321;50.428;8.378;2023-12-20T14:43:47;4.50;;;1.33;;
64854;SDS011;51321;50.428;8.378;2023-12-20T14:46:29;5.63;;;1.85;;
64854;SDS011;51321;50.428;8.378;2023-12-20T14:49:09;8.20;;;2.22;;
64854;SDS011;51321;50.428;8.378;2023-12-20T14:51:50;13.18;;;2.83;;
64854;SDS011;51321;50.428;8.378;2023-12-20T14:54:31;6.35;;;1.60;;
64854;SDS011;51321;50.428;8.378;2023-12-20T14:57:11;6.40;;;1.63;;
64854;SDS011;51321;50.428;8.378;2023-12-20T14:59:52;9.20;;;3.30;;
64854;SDS011;51321;50.428;8.378;2023-12-20T15:02:34;8.07;;;1.83;;
64854;SDS011;51321;50.428;8.378;2023-12-20T15:05:15;6.83;;;2.43;;
64854;SDS011;51321;50.428;8.378;2023-12-20T15:07:57;9.35;;;1.88;;
64854;SDS011;51321;50.428;8.378;2023-12-20T15:10:38;6.50;;;1.90;;
64854;SDS011;51321;50.428;8.378;2023-12-20T15:13:19;10.43;;;4.50;;
64854;SDS011;51321;50.428;8.378;2023-12-20T15:15:59;11.88;;;4.97;;
64854;SDS011;51321;50.428;8.378;2023-12-20T15:18:41;9.40;;;3.13;;
64854;SDS011;51321;50.428;8.378;2023-12-20T15:21:21;8.63;;;2.45;;
64854;SDS011;51321;50.428;8.378;2023-12-20T15:24:10;9.70;;;4.22;;
64854;SDS011;51321;50.428;8.378;2023-12-20T15:26:54;7.57;;;2.70;;
64854;SDS011;51321;50.428;8.378;2023-12-20T15:29:35;4.72;;;1.83;;
64854;SDS011;51321;50.428;8.378;2023-12-20T15:32:16;8.95;;;2.47;;
64854;SDS011;51321;50.428;8.378;2023-12-20T15:34:58;4.88;;;2.10;;
64854;SDS011;51321;50.428;8.378;2023-12-20T15:37:39;4.38;;;1.30;;
64854;SDS011;51321;50.428;8.378;2023-12-20T15:40:19;7.82;;;1.42;;
64854;SDS011;51321;50.428;8.378;2023-12-20T15:43:00;6.55;;;1.88;;
64854;SDS011;51321;50.428;8.378;2023-12-20T15:45:40;7.28;;;1.77;;
64854;SDS011;51321;50.428;8.378;2023-12-20T15:48:21;6.55;;;1.52;;
64854;SDS011;51321;50.428;8.378;2023-12-20T15:51:08;5.78;;;1.30;;
64854;SDS011;51321;50.428;8.378;2023-12-20T15:53:49;3.60;;;0.95;;
64854;SDS011;51321;50.428;8.378;2023-12-20T15:56:29;5.38;;;1.92;;
64854;SDS011;51321;50.428;8.378;2023-12-20T15:59:10;7.20;;;1.92;;
64854;SDS011;51321;50.428;8.378;2023-12-20T16:01:50;6.07;;;2.75;;
64854;SDS011;51321;50.428;8.378;2023-12-20T16:04:31;4.82;;;1.55;;
64854;SDS011;51321;50.428;8.378;2023-12-20T16:07:13;8.10;;;1.73;;
64854;SDS011;51321;50.428;8.378;2023-12-20T16:09:53;8.07;;;1.60;;
64854;SDS011;51321;50.428;8.378;2023-12-20T16:12:35;7.70;;;1.38;;
64854;SDS011;51321;50.428;8.378;2023-12-20T16:15:16;3.75;;;1.23;;